sensor_id;sensor_type;location;lat;lon;timestamp;P1;durP1;ratioP1;P2;durP2;ratioP2
15385;SDS011;7791;47.246;9.648;2022-07-23T00:00:59;11.43;;;7.80;;
15385;SDS011;7791;47.246;9.648;2022-07-23T00:03:25;8.38;;;7.53;;
15385;SDS011;7791;47.246;9.648;2022-07-23T00:05:51;10.82;;;8.07;;
15385;SDS011;7791;47.246;9.648;2022-07-23T00:08:18;9.10;;;7.93;;
15385;SDS011;7791;47.246;9.648;2022-07-23T00:10:45;11.50;;;8.90;;
15385;SDS011;7791;47.246;9.648;2022-07-23T00:13:12;10.00;;;7.70;;
15385;SDS011;7791;47.246;9.648;2022-07-23T00:15:38;11.60;;;8.67;;
15385;SDS011;7791;47.246;9.648;2022-07-23T00:18:03;11.80;;;9.30;;
15385;SDS011;7791;47.246;9.648;2022-07-23T00:20:30;16.67;;;9.47;;
15385;SDS011;7791;47.246;9.648;2022-07-23T00:22:55;12.40;;;9.37;;
15385;SDS011;7791;47.246;9.648;2022-07-23T00:25:22;12.47;;;9.70;;
15385;SDS011;7791;47.246;9.648;2022-07-23T00:27:48;12.47;;;9.57;;
15385;SDS011;7791;47.246;9.648;2022-07-23T00:30:16;13.87;;;9.90;;
15385;SDS011;7791;47.246;9.648;2022-07-23T00:32:45;13.37;;;9.70;;
15385;SDS011;7791;47.246;9.648;2022-07-23T00:35:12;12.00;;;10.27;;
15385;SDS011;7791;47.246;9.648;2022-07-23T00:37:38;14.07;;;10.50;;
15385;SDS011;7791;47.246;9.648;2022-07-23T00:40:04;14.50;;;10.57;;
15385;SDS011;7791;47.246;9.648;2022-07-23T00:42:31;13.60;;;10.70;;
15385;SDS011;7791;47.246;9.648;2022-07-23T00:44:57;14.17;;;11.07;;
15385;SDS011;7791;47.246;9.648;2022-07-23T00:47:24;15.13;;;12.17;;
15385;SDS011;7791;47.246;9.648;2022-07-23T00:49:50;18.03;;;13.17;;
15385;SDS011;7791;47.246;9.648;2022-07-23T00:52:16;19.37;;;13.00;;
15385;SDS011;7791;47.246;9.648;2022-07-23T00:54:42;20.20;;;13.20;;
15385;SDS011;7791;47.246;9.648;2022-07-23T00:57:08;17.00;;;11.57;;
15385;SDS011;7791;47.246;9.648;2022-07-23T00:59:35;16.83;;;11.70;;
15385;SDS011;7791;47.246;9.648;2022-07-23T01:02:03;16.83;;;12.23;;
15385;SDS011;7791;47.246;9.648;2022-07-23T01:04:30;17.03;;;12.80;;
15385;SDS011;7791;47.246;9.648;2022-07-23T01:06:56;20.70;;;13.77;;
15385;SDS011;7791;47.246;9.648;2022-07-23T01:09:22;15.23;;;13.37;;
15385;SDS011;7791;47.246;9.648;2022-07-23T01:11:48;19.20;;;13.67;;
15385;SDS011;7791;47.246;9.648;2022-07-23T01:14:17;19.23;;;13.63;;
15385;SDS011;7791;47.246;9.648;2022-07-23T01:16:44;17.77;;;14.13;;
15385;SDS011;7791;47.246;9.648;2022-07-23T01:19:13;18.63;;;14.47;;
15385;SDS011;7791;47.246;9.648;2022-07-23T01:21:41;19.03;;;14.67;;
15385;SDS011;7791;47.246;9.648;2022-07-23T01:24:10;16.37;;;13.30;;
15385;SDS011;7791;47.246;9.648;2022-07-23T01:26:37;16.17;;;13.60;;
15385;SDS011;7791;47.246;9.648;2022-07-23T01:29:05;16.87;;;13.23;;
15385;SDS011;7791;47.246;9.648;2022-07-23T01:34:52;17.03;;;12.90;;
15385;SDS011;7791;47.246;9.648;2022-07-23T01:37:19;15.53;;;12.27;;
15385;SDS011;7791;47.246;9.648;2022-07-23T01:39:46;17.17;;;12.03;;
15385;SDS011;7791;47.246;9.648;2022-07-23T01:42:12;15.73;;;11.40;;
15385;SDS011;7791;47.246;9.648;2022-07-23T01:44:39;17.93;;;12.33;;
15385;SDS011;7791;47.246;9.648;2022-07-23T01:47:05;15.80;;;11.97;;
15385;SDS011;7791;47.246;9.648;2022-07-23T01:49:31;15.33;;;11.60;;
15385;SDS011;7791;47.246;9.648;2022-07-23T01:51:58;15.23;;;11.73;;
15385;SDS011;7791;47.246;9.648;2022-07-23T01:54:24;13.70;;;11.50;;
15385;SDS011;7791;47.246;9.648;2022-07-23T01:56:51;15.57;;;11.17;;
15385;SDS011;7791;47.246;9.648;2022-07-23T01:59:17;15.10;;;11.20;;
15385;SDS011;7791;47.246;9.648;2022-07-23T02:01:44;14.13;;;10.73;;
15385;SDS011;7791;47.246;9.648;2022-07-23T02:04:10;14.07;;;10.43;;
15385;SDS011;7791;47.246;9.648;2022-07-23T02:06:36;15.07;;;9.60;;
15385;SDS011;7791;47.246;9.648;2022-07-23T02:09:02;12.80;;;9.63;;
15385;SDS011;7791;47.246;9.648;2022-07-23T02:11:29;12.97;;;8.30;;
15385;SDS011;7791;47.246;9.648;2022-07-23T02:13:56;11.20;;;7.60;;
15385;SDS011;7791;47.246;9.648;2022-07-23T02:16:22;8.57;;;6.87;;
15385;SDS011;7791;47.246;9.648;2022-07-23T02:18:48;6.83;;;5.90;;
15385;SDS011;7791;47.246;9.648;2022-07-23T02:21:14;9.23;;;5.87;;
15385;SDS011;7791;47.246;9.648;2022-07-23T02:23:40;10.20;;;6.30;;
15385;SDS011;7791;47.246;9.648;2022-07-23T02:26:06;7.07;;;6.30;;
15385;SDS011;7791;47.246;9.648;2022-07-23T02:28:32;8.20;;;6.00;;
15385;SDS011;7791;47.246;9.648;2022-07-23T02:30:59;6.30;;;5.57;;
15385;SDS011;7791;47.246;9.648;2022-07-23T02:33:25;11.47;;;5.93;;
15385;SDS011;7791;47.246;9.648;2022-07-23T02:35:51;7.73;;;6.00;;
15385;SDS011;7791;47.246;9.648;2022-07-23T02:38:17;8.33;;;6.23;;
15385;SDS011;7791;47.246;9.648;2022-07-23T02:40:43;8.47;;;5.43;;
15385;SDS011;7791;47.246;9.648;2022-07-23T02:43:08;7.10;;;6.07;;
15385;SDS011;7791;47.246;9.648;2022-07-23T02:45:34;8.57;;;6.10;;
15385;SDS011;7791;47.246;9.648;2022-07-23T02:48:02;7.67;;;5.57;;
15385;SDS011;7791;47.246;9.648;2022-07-23T02:50:28;6.00;;;5.27;;
15385;SDS011;7791;47.246;9.648;2022-07-23T02:52:54;7.73;;;5.80;;
15385;SDS011;7791;47.246;9.648;2022-07-23T02:55:20;6.37;;;4.97;;
15385;SDS011;7791;47.246;9.648;2022-07-23T02:57:46;5.60;;;4.90;;
15385;SDS011;7791;47.246;9.648;2022-07-23T03:00:13;5.77;;;4.77;;
15385;SDS011;7791;47.246;9.648;2022-07-23T03:02:39;5.83;;;5.23;;
15385;SDS011;7791;47.246;9.648;2022-07-23T03:05:06;5.97;;;5.00;;
15385;SDS011;7791;47.246;9.648;2022-07-23T03:07:33;6.97;;;4.53;;
15385;SDS011;7791;47.246;9.648;2022-07-23T03:09:59;6.47;;;4.83;;
15385;SDS011;7791;47.246;9.648;2022-07-23T03:12:25;7.13;;;5.00;;
15385;SDS011;7791;47.246;9.648;2022-07-23T03:14:51;6.37;;;5.00;;
15385;SDS011;7791;47.246;9.648;2022-07-23T03:17:17;7.10;;;5.50;;
15385;SDS011;7791;47.246;9.648;2022-07-23T03:19:43;5.77;;;4.67;;
15385;SDS011;7791;47.246;9.648;2022-07-23T03:22:10;6.20;;;4.63;;
15385;SDS011;7791;47.246;9.648;2022-07-23T03:24:36;9.50;;;4.70;;
15385;SDS011;7791;47.246;9.648;2022-07-23T03:27:02;6.43;;;4.60;;
15385;SDS011;7791;47.246;9.648;2022-07-23T03:29:28;6.47;;;4.97;;
15385;SDS011;7791;47.246;9.648;2022-07-23T03:31:54;5.80;;;5.00;;
15385;SDS011;7791;47.246;9.648;2022-07-23T03:34:20;7.17;;;4.17;;
15385;SDS011;7791;47.246;9.648;2022-07-23T03:36:46;5.90;;;4.43;;
15385;SDS011;7791;47.246;9.648;2022-07-23T03:39:13;6.57;;;4.97;;
15385;SDS011;7791;47.246;9.648;2022-07-23T03:41:39;5.50;;;4.43;;
15385;SDS011;7791;47.246;9.648;2022-07-23T03:44:06;5.40;;;4.77;;
15385;SDS011;7791;47.246;9.648;2022-07-23T03:46:32;7.43;;;5.00;;
15385;SDS011;7791;47.246;9.648;2022-07-23T03:48:58;8.63;;;5.17;;
15385;SDS011;7791;47.246;9.648;2022-07-23T03:51:24;8.83;;;4.80;;
15385;SDS011;7791;47.246;9.648;2022-07-23T03:53:52;6.93;;;5.13;;
15385;SDS011;7791;47.246;9.648;2022-07-23T03:56:20;5.63;;;5.00;;
15385;SDS011;7791;47.246;9.648;2022-07-23T03:58:46;5.83;;;5.07;;
15385;SDS011;7791;47.246;9.648;2022-07-23T04:01:13;6.13;;;5.23;;
15385;SDS011;7791;47.246;9.648;2022-07-23T04:03:51;6.67;;;5.40;;
15385;SDS011;7791;47.246;9.648;2022-07-23T04:06:18;7.97;;;5.53;;
15385;SDS011;7791;47.246;9.648;2022-07-23T04:08:43;7.00;;;5.50;;
15385;SDS011;7791;47.246;9.648;2022-07-23T04:11:09;7.47;;;5.37;;
15385;SDS011;7791;47.246;9.648;2022-07-23T04:13:37;8.30;;;5.13;;
15385;SDS011;7791;47.246;9.648;2022-07-23T04:16:03;7.03;;;5.40;;
15385;SDS011;7791;47.246;9.648;2022-07-23T04:18:29;7.40;;;5.53;;
15385;SDS011;7791;47.246;9.648;2022-07-23T04:20:55;7.07;;;5.37;;
15385;SDS011;7791;47.246;9.648;2022-07-23T04:23:21;6.03;;;5.43;;
15385;SDS011;7791;47.246;9.648;2022-07-23T04:25:47;7.53;;;6.33;;
15385;SDS011;7791;47.246;9.648;2022-07-23T04:28:13;9.00;;;5.97;;
15385;SDS011;7791;47.246;9.648;2022-07-23T04:30:40;7.73;;;6.20;;
15385;SDS011;7791;47.246;9.648;2022-07-23T04:33:07;12.40;;;6.40;;
15385;SDS011;7791;47.246;9.648;2022-07-23T04:35:32;9.77;;;6.37;;
15385;SDS011;7791;47.246;9.648;2022-07-23T04:37:59;11.07;;;7.00;;
15385;SDS011;7791;47.246;9.648;2022-07-23T04:40:25;9.37;;;6.30;;
15385;SDS011;7791;47.246;9.648;2022-07-23T04:42:51;9.33;;;6.97;;
15385;SDS011;7791;47.246;9.648;2022-07-23T04:45:17;10.37;;;6.93;;
15385;SDS011;7791;47.246;9.648;2022-07-23T04:47:45;9.67;;;7.13;;
15385;SDS011;7791;47.246;9.648;2022-07-23T04:50:11;8.37;;;6.60;;
15385;SDS011;7791;47.246;9.648;2022-07-23T04:52:37;9.63;;;6.80;;
15385;SDS011;7791;47.246;9.648;2022-07-23T04:55:03;8.43;;;6.77;;
15385;SDS011;7791;47.246;9.648;2022-07-23T04:57:31;9.63;;;6.20;;
15385;SDS011;7791;47.246;9.648;2022-07-23T04:59:56;7.40;;;6.70;;
15385;SDS011;7791;47.246;9.648;2022-07-23T05:02:22;8.83;;;7.30;;
15385;SDS011;7791;47.246;9.648;2022-07-23T05:04:49;8.17;;;6.30;;
15385;SDS011;7791;47.246;9.648;2022-07-23T05:07:15;6.93;;;6.23;;
15385;SDS011;7791;47.246;9.648;2022-07-23T05:09:41;9.53;;;6.97;;
15385;SDS011;7791;47.246;9.648;2022-07-23T05:12:07;7.27;;;6.00;;
15385;SDS011;7791;47.246;9.648;2022-07-23T05:14:33;9.50;;;5.83;;
15385;SDS011;7791;47.246;9.648;2022-07-23T05:16:59;8.03;;;5.80;;
15385;SDS011;7791;47.246;9.648;2022-07-23T05:19:26;6.80;;;5.33;;
15385;SDS011;7791;47.246;9.648;2022-07-23T05:21:53;7.67;;;5.53;;
15385;SDS011;7791;47.246;9.648;2022-07-23T05:24:20;7.17;;;5.13;;
15385;SDS011;7791;47.246;9.648;2022-07-23T05:26:47;6.60;;;5.67;;
15385;SDS011;7791;47.246;9.648;2022-07-23T05:29:13;8.77;;;5.93;;
15385;SDS011;7791;47.246;9.648;2022-07-23T05:31:39;6.37;;;5.53;;
15385;SDS011;7791;47.246;9.648;2022-07-23T05:34:05;8.67;;;5.90;;
15385;SDS011;7791;47.246;9.648;2022-07-23T05:36:31;6.93;;;5.37;;
15385;SDS011;7791;47.246;9.648;2022-07-23T05:38:58;6.63;;;5.90;;
15385;SDS011;7791;47.246;9.648;2022-07-23T05:41:24;7.03;;;5.80;;
15385;SDS011;7791;47.246;9.648;2022-07-23T05:43:50;6.97;;;6.00;;
15385;SDS011;7791;47.246;9.648;2022-07-23T05:46:16;7.40;;;5.70;;
15385;SDS011;7791;47.246;9.648;2022-07-23T05:48:42;6.47;;;5.53;;
15385;SDS011;7791;47.246;9.648;2022-07-23T05:51:08;7.70;;;5.73;;
15385;SDS011;7791;47.246;9.648;2022-07-23T05:53:34;6.10;;;5.20;;
15385;SDS011;7791;47.246;9.648;2022-07-23T05:56:02;7.83;;;5.70;;
15385;SDS011;7791;47.246;9.648;2022-07-23T05:58:30;10.73;;;6.03;;
15385;SDS011;7791;47.246;9.648;2022-07-23T06:00:56;6.30;;;5.27;;
15385;SDS011;7791;47.246;9.648;2022-07-23T06:03:22;12.73;;;5.60;;
15385;SDS011;7791;47.246;9.648;2022-07-23T06:05:48;6.33;;;5.70;;
15385;SDS011;7791;47.246;9.648;2022-07-23T06:08:15;10.13;;;5.93;;
15385;SDS011;7791;47.246;9.648;2022-07-23T06:10:41;8.13;;;5.57;;
15385;SDS011;7791;47.246;9.648;2022-07-23T06:13:10;6.97;;;6.00;;
15385;SDS011;7791;47.246;9.648;2022-07-23T06:15:35;7.63;;;6.20;;
15385;SDS011;7791;47.246;9.648;2022-07-23T06:18:01;7.57;;;5.97;;
15385;SDS011;7791;47.246;9.648;2022-07-23T06:20:28;7.57;;;5.97;;
15385;SDS011;7791;47.246;9.648;2022-07-23T06:22:54;7.13;;;5.90;;
15385;SDS011;7791;47.246;9.648;2022-07-23T06:25:21;8.00;;;5.77;;
15385;SDS011;7791;47.246;9.648;2022-07-23T06:27:47;7.23;;;5.37;;
15385;SDS011;7791;47.246;9.648;2022-07-23T06:30:15;7.37;;;6.03;;
15385;SDS011;7791;47.246;9.648;2022-07-23T06:32:41;6.73;;;5.60;;
15385;SDS011;7791;47.246;9.648;2022-07-23T06:35:07;6.97;;;5.17;;
15385;SDS011;7791;47.246;9.648;2022-07-23T06:37:33;7.45;;;5.00;;
15385;SDS011;7791;47.246;9.648;2022-07-23T06:39:59;6.93;;;5.13;;
15385;SDS011;7791;47.246;9.648;2022-07-23T06:42:24;7.75;;;5.05;;
15385;SDS011;7791;47.246;9.648;2022-07-23T06:44:50;5.25;;;4.75;;
15385;SDS011;7791;47.246;9.648;2022-07-23T06:47:18;6.10;;;5.05;;
15385;SDS011;7791;47.246;9.648;2022-07-23T06:49:44;5.45;;;4.93;;
15385;SDS011;7791;47.246;9.648;2022-07-23T06:52:10;4.70;;;4.30;;
15385;SDS011;7791;47.246;9.648;2022-07-23T06:54:36;7.35;;;5.05;;
15385;SDS011;7791;47.246;9.648;2022-07-23T06:57:02;6.03;;;4.70;;
15385;SDS011;7791;47.246;9.648;2022-07-23T06:59:28;6.20;;;5.10;;
15385;SDS011;7791;47.246;9.648;2022-07-23T07:01:55;8.23;;;5.55;;
15385;SDS011;7791;47.246;9.648;2022-07-23T07:04:22;9.40;;;5.75;;
15385;SDS011;7791;47.246;9.648;2022-07-23T07:06:56;7.30;;;5.47;;
15385;SDS011;7791;47.246;9.648;2022-07-23T07:09:22;6.82;;;4.93;;
15385;SDS011;7791;47.246;9.648;2022-07-23T07:11:47;7.45;;;5.00;;
15385;SDS011;7791;47.246;9.648;2022-07-23T07:14:14;6.75;;;5.13;;
15385;SDS011;7791;47.246;9.648;2022-07-23T07:16:40;6.03;;;5.15;;
15385;SDS011;7791;47.246;9.648;2022-07-23T07:19:06;6.90;;;5.10;;
15385;SDS011;7791;47.246;9.648;2022-07-23T07:24:21;7.10;;;5.90;;
15385;SDS011;7791;47.246;9.648;2022-07-23T07:26:47;7.20;;;5.53;;
15385;SDS011;7791;47.246;9.648;2022-07-23T07:29:13;8.00;;;5.87;;
15385;SDS011;7791;47.246;9.648;2022-07-23T07:31:39;9.00;;;5.60;;
15385;SDS011;7791;47.246;9.648;2022-07-23T07:46:18;6.13;;;5.53;;
15385;SDS011;7791;47.246;9.648;2022-07-23T07:48:44;8.83;;;6.17;;
15385;SDS011;7791;47.246;9.648;2022-07-23T07:51:10;8.90;;;5.83;;
15385;SDS011;7791;47.246;9.648;2022-07-23T07:53:36;9.10;;;5.80;;
15385;SDS011;7791;47.246;9.648;2022-07-23T07:56:01;7.00;;;5.87;;
15385;SDS011;7791;47.246;9.648;2022-07-23T07:58:27;6.50;;;5.20;;
15385;SDS011;7791;47.246;9.648;2022-07-23T08:00:54;6.40;;;5.67;;
15385;SDS011;7791;47.246;9.648;2022-07-23T08:03:23;6.67;;;5.97;;
15385;SDS011;7791;47.246;9.648;2022-07-23T08:05:48;6.80;;;5.50;;
15385;SDS011;7791;47.246;9.648;2022-07-23T08:08:14;6.90;;;5.33;;
15385;SDS011;7791;47.246;9.648;2022-07-23T08:10:40;7.30;;;6.60;;
15385;SDS011;7791;47.246;9.648;2022-07-23T08:13:06;7.50;;;6.40;;
15385;SDS011;7791;47.246;9.648;2022-07-23T08:15:32;7.67;;;6.60;;
15385;SDS011;7791;47.246;9.648;2022-07-23T08:17:59;6.90;;;6.20;;
15385;SDS011;7791;47.246;9.648;2022-07-23T08:20:25;8.23;;;6.40;;
15385;SDS011;7791;47.246;9.648;2022-07-23T08:22:52;6.50;;;5.80;;
15385;SDS011;7791;47.246;9.648;2022-07-23T08:25:20;9.93;;;6.40;;
15385;SDS011;7791;47.246;9.648;2022-07-23T08:27:46;9.60;;;6.33;;
15385;SDS011;7791;47.246;9.648;2022-07-23T08:30:12;7.25;;;5.53;;
15385;SDS011;7791;47.246;9.648;2022-07-23T08:32:48;10.93;;;6.37;;
15385;SDS011;7791;47.246;9.648;2022-07-23T08:35:20;5.93;;;5.25;;
15385;SDS011;7791;47.246;9.648;2022-07-23T08:37:47;5.97;;;5.30;;
15385;SDS011;7791;47.246;9.648;2022-07-23T08:40:13;5.53;;;4.97;;
15385;SDS011;7791;47.246;9.648;2022-07-23T08:42:39;6.68;;;5.28;;
15385;SDS011;7791;47.246;9.648;2022-07-23T08:45:05;5.68;;;4.95;;
15385;SDS011;7791;47.246;9.648;2022-07-23T08:47:33;6.03;;;5.05;;
15385;SDS011;7791;47.246;9.648;2022-07-23T08:49:59;6.10;;;5.38;;
15385;SDS011;7791;47.246;9.648;2022-07-23T08:52:27;6.40;;;5.63;;
15385;SDS011;7791;47.246;9.648;2022-07-23T08:54:55;6.32;;;5.15;;
15385;SDS011;7791;47.246;9.648;2022-07-23T08:57:22;6.05;;;5.30;;
15385;SDS011;7791;47.246;9.648;2022-07-23T08:59:48;7.45;;;5.38;;
15385;SDS011;7791;47.246;9.648;2022-07-23T09:02:13;6.80;;;5.40;;
15385;SDS011;7791;47.246;9.648;2022-07-23T09:04:39;8.15;;;5.57;;
15385;SDS011;7791;47.246;9.648;2022-07-23T09:07:05;7.88;;;5.75;;
15385;SDS011;7791;47.246;9.648;2022-07-23T09:09:32;9.10;;;5.13;;
15385;SDS011;7791;47.246;9.648;2022-07-23T09:12:04;7.38;;;5.13;;
15385;SDS011;7791;47.246;9.648;2022-07-23T09:14:38;7.47;;;5.35;;
15385;SDS011;7791;47.246;9.648;2022-07-23T09:17:11;9.02;;;5.15;;
15385;SDS011;7791;47.246;9.648;2022-07-23T09:19:38;5.55;;;5.00;;
15385;SDS011;7791;47.246;9.648;2022-07-23T09:25:10;6.25;;;5.13;;
15385;SDS011;7791;47.246;9.648;2022-07-23T09:27:51;6.05;;;5.35;;
15385;SDS011;7791;47.246;9.648;2022-07-23T09:30:19;7.65;;;5.22;;
15385;SDS011;7791;47.246;9.648;2022-07-23T09:32:56;5.65;;;5.05;;
15385;SDS011;7791;47.246;9.648;2022-07-23T09:35:42;5.15;;;4.65;;
15385;SDS011;7791;47.246;9.648;2022-07-23T09:38:09;6.20;;;5.35;;
15385;SDS011;7791;47.246;9.648;2022-07-23T09:40:36;5.90;;;5.30;;
15385;SDS011;7791;47.246;9.648;2022-07-23T09:43:02;10.38;;;6.40;;
15385;SDS011;7791;47.246;9.648;2022-07-23T09:45:28;7.13;;;6.10;;
15385;SDS011;7791;47.246;9.648;2022-07-23T09:47:56;8.85;;;6.90;;
15385;SDS011;7791;47.246;9.648;2022-07-23T09:50:35;7.65;;;6.85;;
15385;SDS011;7791;47.246;9.648;2022-07-23T09:53:01;8.15;;;7.35;;
15385;SDS011;7791;47.246;9.648;2022-07-23T09:55:30;7.80;;;7.00;;
15385;SDS011;7791;47.246;9.648;2022-07-23T09:57:58;7.07;;;6.32;;
15385;SDS011;7791;47.246;9.648;2022-07-23T10:00:24;7.22;;;5.63;;
15385;SDS011;7791;47.246;9.648;2022-07-23T10:02:50;9.90;;;6.30;;
15385;SDS011;7791;47.246;9.648;2022-07-23T10:05:17;9.00;;;6.63;;
15385;SDS011;7791;47.246;9.648;2022-07-23T10:07:44;6.90;;;6.05;;
15385;SDS011;7791;47.246;9.648;2022-07-23T10:10:10;6.53;;;5.38;;
15385;SDS011;7791;47.246;9.648;2022-07-23T10:12:38;7.72;;;5.93;;
15385;SDS011;7791;47.246;9.648;2022-07-23T10:15:05;6.05;;;5.30;;
15385;SDS011;7791;47.246;9.648;2022-07-23T10:17:31;6.32;;;5.70;;
15385;SDS011;7791;47.246;9.648;2022-07-23T10:19:57;6.50;;;5.53;;
15385;SDS011;7791;47.246;9.648;2022-07-23T10:22:24;6.78;;;5.70;;
15385;SDS011;7791;47.246;9.648;2022-07-23T10:24:53;8.45;;;6.53;;
15385;SDS011;7791;47.246;9.648;2022-07-23T10:27:37;10.73;;;6.15;;
15385;SDS011;7791;47.246;9.648;2022-07-23T10:30:16;8.23;;;6.45;;
15385;SDS011;7791;47.246;9.648;2022-07-23T10:32:49;9.93;;;6.40;;
15385;SDS011;7791;47.246;9.648;2022-07-23T10:35:25;7.05;;;6.35;;
15385;SDS011;7791;47.246;9.648;2022-07-23T10:38:01;8.40;;;5.75;;
15385;SDS011;7791;47.246;9.648;2022-07-23T10:40:32;8.57;;;6.20;;
15385;SDS011;7791;47.246;9.648;2022-07-23T10:42:58;6.85;;;5.40;;
15385;SDS011;7791;47.246;9.648;2022-07-23T10:45:27;8.73;;;6.28;;
15385;SDS011;7791;47.246;9.648;2022-07-23T10:47:54;8.38;;;6.30;;
15385;SDS011;7791;47.246;9.648;2022-07-23T10:50:35;6.35;;;5.60;;
15385;SDS011;7791;47.246;9.648;2022-07-23T10:53:15;6.05;;;5.38;;
15385;SDS011;7791;47.246;9.648;2022-07-23T10:55:43;7.95;;;5.10;;
15385;SDS011;7791;47.246;9.648;2022-07-23T10:58:20;6.05;;;4.80;;
15385;SDS011;7791;47.246;9.648;2022-07-23T11:03:58;5.88;;;4.75;;
15385;SDS011;7791;47.246;9.648;2022-07-23T11:06:23;5.45;;;4.95;;
15385;SDS011;7791;47.246;9.648;2022-07-23T11:08:50;6.15;;;5.50;;
15385;SDS011;7791;47.246;9.648;2022-07-23T11:11:49;6.50;;;5.90;;
15385;SDS011;7791;47.246;9.648;2022-07-23T11:14:14;8.30;;;6.18;;
15385;SDS011;7791;47.246;9.648;2022-07-23T11:16:47;8.50;;;7.03;;
15385;SDS011;7791;47.246;9.648;2022-07-23T11:19:12;7.90;;;7.10;;
15385;SDS011;7791;47.246;9.648;2022-07-23T11:21:45;7.40;;;6.40;;
15385;SDS011;7791;47.246;9.648;2022-07-23T11:24:12;8.00;;;6.10;;
15385;SDS011;7791;47.246;9.648;2022-07-23T11:26:46;8.23;;;5.93;;
15385;SDS011;7791;47.246;9.648;2022-07-23T11:32:18;7.75;;;6.25;;
15385;SDS011;7791;47.246;9.648;2022-07-23T11:34:55;7.78;;;7.07;;
15385;SDS011;7791;47.246;9.648;2022-07-23T11:37:27;8.85;;;7.38;;
15385;SDS011;7791;47.246;9.648;2022-07-23T11:40:02;7.65;;;6.72;;
15385;SDS011;7791;47.246;9.648;2022-07-23T11:42:30;8.05;;;6.40;;
15385;SDS011;7791;47.246;9.648;2022-07-23T11:44:56;8.57;;;6.82;;
15385;SDS011;7791;47.246;9.648;2022-07-23T11:47:24;6.82;;;6.10;;
15385;SDS011;7791;47.246;9.648;2022-07-23T11:49:51;7.60;;;6.30;;
15385;SDS011;7791;47.246;9.648;2022-07-23T11:52:17;8.63;;;6.38;;
15385;SDS011;7791;47.246;9.648;2022-07-23T11:54:46;7.70;;;6.95;;
15385;SDS011;7791;47.246;9.648;2022-07-23T11:57:14;9.52;;;7.13;;
15385;SDS011;7791;47.246;9.648;2022-07-23T11:59:40;6.90;;;6.18;;
15385;SDS011;7791;47.246;9.648;2022-07-23T12:02:07;6.38;;;5.78;;
15385;SDS011;7791;47.246;9.648;2022-07-23T12:04:41;8.27;;;6.13;;
15385;SDS011;7791;47.246;9.648;2022-07-23T12:07:24;7.03;;;5.93;;
15385;SDS011;7791;47.246;9.648;2022-07-23T12:09:51;7.50;;;5.97;;
15385;SDS011;7791;47.246;9.648;2022-07-23T12:12:18;7.20;;;5.60;;
15385;SDS011;7791;47.246;9.648;2022-07-23T12:14:48;6.97;;;5.85;;
15385;SDS011;7791;47.246;9.648;2022-07-23T12:17:14;6.53;;;5.70;;
15385;SDS011;7791;47.246;9.648;2022-07-23T12:19:42;6.60;;;5.80;;
15385;SDS011;7791;47.246;9.648;2022-07-23T12:22:08;6.22;;;5.63;;
15385;SDS011;7791;47.246;9.648;2022-07-23T12:27:23;6.28;;;5.55;;
15385;SDS011;7791;47.246;9.648;2022-07-23T12:29:49;8.55;;;5.65;;
15385;SDS011;7791;47.246;9.648;2022-07-23T12:32:19;6.68;;;5.00;;
15385;SDS011;7791;47.246;9.648;2022-07-23T12:34:47;6.57;;;5.00;;
15385;SDS011;7791;47.246;9.648;2022-07-23T12:37:26;7.32;;;5.45;;
15385;SDS011;7791;47.246;9.648;2022-07-23T12:39:53;8.52;;;5.72;;
15385;SDS011;7791;47.246;9.648;2022-07-23T12:42:19;8.15;;;5.22;;
15385;SDS011;7791;47.246;9.648;2022-07-23T12:47:29;7.35;;;5.43;;
15385;SDS011;7791;47.246;9.648;2022-07-23T12:49:56;7.72;;;5.38;;
15385;SDS011;7791;47.246;9.648;2022-07-23T12:52:22;6.68;;;5.57;;
15385;SDS011;7791;47.246;9.648;2022-07-23T12:54:47;6.10;;;5.43;;
15385;SDS011;7791;47.246;9.648;2022-07-23T12:57:13;7.00;;;5.43;;
15385;SDS011;7791;47.246;9.648;2022-07-23T12:59:39;6.65;;;5.50;;
15385;SDS011;7791;47.246;9.648;2022-07-23T13:02:05;6.72;;;5.45;;
15385;SDS011;7791;47.246;9.648;2022-07-23T13:04:34;6.65;;;5.47;;
15385;SDS011;7791;47.246;9.648;2022-07-23T13:07:01;6.22;;;5.40;;
15385;SDS011;7791;47.246;9.648;2022-07-23T13:09:27;5.97;;;5.25;;
15385;SDS011;7791;47.246;9.648;2022-07-23T13:11:55;6.95;;;5.75;;
15385;SDS011;7791;47.246;9.648;2022-07-23T13:14:21;8.77;;;6.05;;
15385;SDS011;7791;47.246;9.648;2022-07-23T13:16:48;8.85;;;5.50;;
15385;SDS011;7791;47.246;9.648;2022-07-23T13:19:15;8.68;;;5.60;;
15385;SDS011;7791;47.246;9.648;2022-07-23T13:21:41;6.50;;;5.80;;
15385;SDS011;7791;47.246;9.648;2022-07-23T13:24:09;6.95;;;5.70;;
15385;SDS011;7791;47.246;9.648;2022-07-23T13:26:36;7.03;;;5.78;;
15385;SDS011;7791;47.246;9.648;2022-07-23T13:29:02;7.38;;;5.80;;
15385;SDS011;7791;47.246;9.648;2022-07-23T13:31:28;7.03;;;5.55;;
15385;SDS011;7791;47.246;9.648;2022-07-23T13:33:54;6.88;;;5.50;;
15385;SDS011;7791;47.246;9.648;2022-07-23T13:36:20;6.68;;;5.80;;
15385;SDS011;7791;47.246;9.648;2022-07-23T13:38:45;5.95;;;5.35;;
15385;SDS011;7791;47.246;9.648;2022-07-23T13:41:12;7.40;;;5.57;;
15385;SDS011;7791;47.246;9.648;2022-07-23T13:43:38;8.68;;;5.68;;
15385;SDS011;7791;47.246;9.648;2022-07-23T13:46:04;5.90;;;5.30;;
15385;SDS011;7791;47.246;9.648;2022-07-23T13:48:35;7.00;;;5.57;;
15385;SDS011;7791;47.246;9.648;2022-07-23T13:51:01;7.30;;;5.63;;
15385;SDS011;7791;47.246;9.648;2022-07-23T13:53:27;7.38;;;5.95;;
15385;SDS011;7791;47.246;9.648;2022-07-23T13:55:52;6.10;;;5.50;;
15385;SDS011;7791;47.246;9.648;2022-07-23T13:58:20;6.10;;;5.30;;
15385;SDS011;7791;47.246;9.648;2022-07-23T14:00:47;6.50;;;5.45;;
15385;SDS011;7791;47.246;9.648;2022-07-23T14:06:11;7.13;;;5.72;;
15385;SDS011;7791;47.246;9.648;2022-07-23T14:08:37;6.35;;;5.75;;
15385;SDS011;7791;47.246;9.648;2022-07-23T14:11:03;7.00;;;6.30;;
15385;SDS011;7791;47.246;9.648;2022-07-23T14:13:31;6.30;;;5.70;;
15385;SDS011;7791;47.246;9.648;2022-07-23T14:15:57;6.90;;;6.18;;
15385;SDS011;7791;47.246;9.648;2022-07-23T14:21:25;8.45;;;6.47;;
15385;SDS011;7791;47.246;9.648;2022-07-23T14:23:56;7.43;;;6.55;;
15385;SDS011;7791;47.246;9.648;2022-07-23T14:26:22;8.85;;;6.00;;
15385;SDS011;7791;47.246;9.648;2022-07-23T14:28:50;10.82;;;6.45;;
15385;SDS011;7791;47.246;9.648;2022-07-23T14:31:18;8.65;;;6.70;;
15385;SDS011;7791;47.246;9.648;2022-07-23T14:33:47;8.70;;;6.25;;
15385;SDS011;7791;47.246;9.648;2022-07-23T14:36:20;7.53;;;6.70;;
15385;SDS011;7791;47.246;9.648;2022-07-23T14:38:46;8.52;;;7.18;;
15385;SDS011;7791;47.246;9.648;2022-07-23T14:41:13;7.32;;;6.50;;
15385;SDS011;7791;47.246;9.648;2022-07-23T14:43:41;9.38;;;7.32;;
15385;SDS011;7791;47.246;9.648;2022-07-23T14:46:09;7.15;;;6.45;;
15385;SDS011;7791;47.246;9.648;2022-07-23T14:48:36;8.23;;;6.82;;
15385;SDS011;7791;47.246;9.648;2022-07-23T14:51:02;7.28;;;6.45;;
15385;SDS011;7791;47.246;9.648;2022-07-23T14:53:28;10.35;;;6.95;;
15385;SDS011;7791;47.246;9.648;2022-07-23T14:56:00;8.10;;;6.38;;
15385;SDS011;7791;47.246;9.648;2022-07-23T14:58:26;8.00;;;6.53;;
15385;SDS011;7791;47.246;9.648;2022-07-23T15:00:51;9.77;;;6.60;;
15385;SDS011;7791;47.246;9.648;2022-07-23T15:03:22;9.07;;;6.63;;
15385;SDS011;7791;47.246;9.648;2022-07-23T15:05:49;7.22;;;6.50;;
15385;SDS011;7791;47.246;9.648;2022-07-23T15:08:16;7.72;;;6.53;;
15385;SDS011;7791;47.246;9.648;2022-07-23T15:10:42;7.53;;;6.32;;
15385;SDS011;7791;47.246;9.648;2022-07-23T15:13:08;7.60;;;6.60;;
15385;SDS011;7791;47.246;9.648;2022-07-23T15:15:34;8.68;;;6.43;;
15385;SDS011;7791;47.246;9.648;2022-07-23T15:18:10;7.10;;;6.03;;
15385;SDS011;7791;47.246;9.648;2022-07-23T15:20:39;8.05;;;6.57;;
15385;SDS011;7791;47.246;9.648;2022-07-23T15:23:07;7.47;;;6.70;;
15385;SDS011;7791;47.246;9.648;2022-07-23T15:25:34;9.02;;;6.68;;
15385;SDS011;7791;47.246;9.648;2022-07-23T15:28:02;9.38;;;6.93;;
15385;SDS011;7791;47.246;9.648;2022-07-23T15:30:32;7.13;;;6.45;;
15385;SDS011;7791;47.246;9.648;2022-07-23T15:33:25;11.38;;;6.22;;
15385;SDS011;7791;47.246;9.648;2022-07-23T15:35:58;7.85;;;7.00;;
15385;SDS011;7791;47.246;9.648;2022-07-23T15:38:41;8.98;;;6.47;;